Harper, Kentucky
Current Conditions -  °F | °C
As of 1:53 PM on Wednesday 17 Dec 2014 (Local Time) from KJKL Reporting Station
Overcast Overcast  
Wind Chill: 34°   Ceiling: 1900
Heat Index: 38°   Visibility: 10mi
Dew Point: 30°   Wind: 5mph
Humidity: 73%   Direction: NA
Pressure: 30.17"   Gusts: NA
Location:  37.7261°N, 83.0786°W
Report Text: KJKL 171853Z AUTO VRB04KT 10SM OVC019 03/M01 A3017 RMK AO2 SLP222 T00331011
Loading
Personal Weather Stations






























Interactive Weather Map New forecast layout! Learn more

10-Day Weather Forecast

Advertisements
Track Severe Weather on mobile